RJKA(METAR)
07/17 15:00
METAR RJKA 170600Z 09012KT 9999 FEW009 SCT015 30/27 Q1007 RMK 1CU009
4CU015 A2976=
戻る
トップページへ戻る
IMOC Co,.Ltd.